createdAt,value
2023-05-19T00:00:31.096Z,101103.09
2023-05-19T00:03:01.426Z,101095.84
2023-05-19T00:05:34.335Z,101098.66
2023-05-19T00:08:04.878Z,101091.00
2023-05-19T00:10:35.441Z,101093.78
2023-05-19T00:13:07.440Z,101090.88
2023-05-19T00:15:41.961Z,101092.13
2023-05-19T00:18:14.180Z,101093.31
2023-05-19T00:20:46.855Z,101092.88
2023-05-19T00:23:16.405Z,101087.22
2023-05-19T00:25:46.476Z,101075.50
2023-05-19T00:28:16.507Z,101077.09
2023-05-19T00:30:44.019Z,101067.84
2023-05-19T00:33:13.638Z,101069.84
2023-05-19T00:35:43.353Z,101070.63
2023-05-19T00:38:13.512Z,101077.09
2023-05-19T00:40:43.370Z,101077.09
2023-05-19T00:43:10.825Z,101080.69
2023-05-19T00:45:40.651Z,101068.59
2023-05-19T00:48:13.273Z,101075.47
2023-05-19T00:50:41.375Z,101080.69
2023-05-19T00:53:11.928Z,101074.28
2023-05-19T00:55:42.776Z,101074.63
2023-05-19T00:58:18.763Z,101078.28
2023-05-19T01:00:49.756Z,101073.00
2023-05-19T01:03:20.682Z,101077.03
2023-05-19T01:05:53.836Z,101075.03
2023-05-19T01:08:21.495Z,101086.34
2023-05-19T01:10:50.881Z,101090.78
2023-05-19T01:13:20.601Z,101083.56
2023-05-19T01:15:57.861Z,101075.50
2023-05-19T01:18:49.382Z,101080.81
2023-05-19T01:21:28.633Z,101077.22
2023-05-19T01:24:05.095Z,101082.50
2023-05-19T01:27:00.832Z,101076.41
2023-05-19T01:29:43.968Z,101070.41
2023-05-19T01:32:14.787Z,101071.25
2023-05-19T01:34:46.578Z,101070.03
2023-05-19T01:37:15.186Z,101059.94
2023-05-19T01:39:45.699Z,101069.69
2023-05-19T01:42:14.483Z,101068.88
2023-05-19T01:44:44.500Z,101063.22
2023-05-19T01:47:12.923Z,101061.97
2023-05-19T01:49:42.691Z,101066.06
2023-05-19T01:52:12.133Z,101061.59
2023-05-19T01:54:44.704Z,101066.88
2023-05-19T01:57:39.267Z,101061.97
2023-05-19T02:00:37.634Z,101056.78
2023-05-19T02:03:13.909Z,101064.50
2023-05-19T02:05:44.154Z,101068.53
2023-05-19T02:08:30.311Z,101072.97
2023-05-19T02:11:07.691Z,101052.00
2023-05-19T02:13:40.136Z,101051.16
2023-05-19T02:16:08.397Z,101053.59
2023-05-19T02:18:41.981Z,101059.63
2023-05-19T02:21:13.775Z,101060.84
2023-05-19T02:23:43.520Z,101062.03
2023-05-19T02:26:13.814Z,101056.84
2023-05-19T02:28:46.465Z,101064.47
2023-05-19T02:31:13.804Z,101067.28
2023-05-19T02:33:41.319Z,101071.25
2023-05-19T02:36:14.499Z,101061.53
2023-05-19T02:38:47.543Z,101065.09
2023-05-19T02:41:18.817Z,101055.75
2023-05-19T02:43:46.326Z,101061.75
2023-05-19T02:46:13.670Z,101057.31
2023-05-19T02:48:43.392Z,101062.09
2023-05-19T02:51:10.713Z,101062.09
2023-05-19T02:53:42.725Z,101062.88
2023-05-19T02:56:15.468Z,101056.41
2023-05-19T02:58:46.112Z,101050.78
2023-05-19T03:01:14.381Z,101057.22
2023-05-19T03:03:41.749Z,101058.00
2023-05-19T03:06:15.627Z,101052.34
2023-05-19T03:08:45.475Z,101046.69
2023-05-19T03:11:16.011Z,101054.31
2023-05-19T03:13:45.822Z,101049.09
2023-05-19T03:16:14.110Z,101052.31
2023-05-19T03:18:47.361Z,101044.59
2023-05-19T03:21:14.710Z,101047.44
2023-05-19T03:23:45.468Z,101051.88
2023-05-19T03:26:15.366Z,101049.06
2023-05-19T03:28:45.346Z,101049.03
2023-05-19T03:31:17.822Z,101046.59
2023-05-19T03:33:48.150Z,101058.31
2023-05-19T03:36:18.569Z,101055.06
2023-05-19T03:38:51.127Z,101053.06
2023-05-19T03:41:21.352Z,101051.44
2023-05-19T03:43:50.936Z,101059.88
2023-05-19T03:46:21.161Z,101059.50
2023-05-19T03:48:53.532Z,101061.91
2023-05-19T03:51:43.272Z,101056.25
2023-05-19T03:54:30.129Z,101061.94
2023-05-19T03:57:04.831Z,101063.13
2023-05-19T03:59:37.616Z,101060.28
2023-05-19T04:02:16.977Z,101063.47
2023-05-19T04:04:44.623Z,101065.50
2023-05-19T04:07:14.360Z,101060.25
2023-05-19T04:09:50.639Z,101061.88
2023-05-19T04:12:18.087Z,101063.88
2023-05-19T04:14:49.137Z,101063.09
2023-05-19T04:17:23.738Z,101065.94
2023-05-19T04:19:53.463Z,101066.31
2023-05-19T04:22:27.902Z,101069.09
2023-05-19T04:24:58.326Z,101074.69
2023-05-19T04:27:27.821Z,101070.63
2023-05-19T04:29:58.229Z,101082.31
2023-05-19T04:32:25.702Z,101069.38
2023-05-19T04:34:58.916Z,101073.88
2023-05-19T04:37:29.935Z,101067.75
2023-05-19T04:40:00.859Z,101080.69
2023-05-19T04:42:33.089Z,101081.16
2023-05-19T04:45:03.643Z,101082.34
2023-05-19T04:47:36.876Z,101074.25
2023-05-19T04:50:05.362Z,101081.94
2023-05-19T04:52:35.005Z,101078.31
2023-05-19T04:55:04.561Z,101081.13
2023-05-19T04:57:32.422Z,101074.25
2023-05-19T05:00:00.474Z,101080.72
2023-05-19T05:02:37.207Z,101079.88
2023-05-19T05:05:07.965Z,101084.41
2023-05-19T05:07:35.307Z,101088.41
2023-05-19T05:10:09.320Z,101087.59
2023-05-19T05:12:42.536Z,101083.16
2023-05-19T05:15:11.227Z,101084.75
2023-05-19T05:17:39.064Z,101090.75
2023-05-19T05:20:11.517Z,101084.28
2023-05-19T05:22:39.273Z,101093.59
2023-05-19T05:25:12.600Z,101086.28
2023-05-19T05:27:43.458Z,101083.16
2023-05-19T05:30:16.965Z,101084.78
2023-05-19T05:32:47.008Z,101082.31
2023-05-19T05:35:32.568Z,101077.03
2023-05-19T05:38:03.231Z,101084.38
2023-05-19T05:40:35.602Z,101077.50
2023-05-19T05:43:07.592Z,101077.88
2023-05-19T05:45:45.550Z,101085.22
2023-05-19T05:48:16.272Z,101087.59
2023-05-19T05:50:48.663Z,101083.16
2023-05-19T05:53:24.920Z,101088.81
2023-05-19T05:55:57.776Z,101087.59
2023-05-19T05:58:29.091Z,101084.38
2023-05-19T06:00:58.068Z,101094.97
2023-05-19T06:03:28.669Z,101092.09
2023-05-19T06:06:00.031Z,101092.53
2023-05-19T06:08:28.078Z,101091.75
2023-05-19T06:10:58.881Z,101095.06
2023-05-19T06:13:31.482Z,101097.03
2023-05-19T06:16:01.718Z,101099.06
2023-05-19T06:18:39.458Z,101096.28
2023-05-19T06:21:10.484Z,101095.09
2023-05-19T06:23:41.332Z,101091.97
2023-05-19T06:26:13.690Z,101091.56
2023-05-19T06:28:45.252Z,101098.25
2023-05-19T06:31:15.201Z,101097.53
2023-05-19T06:33:51.405Z,101099.56
2023-05-19T06:36:19.661Z,101108.06
2023-05-19T06:38:47.903Z,101097.22
2023-05-19T06:41:15.787Z,101104.91
2023-05-19T06:43:45.981Z,101107.75
2023-05-19T06:46:18.093Z,101108.97
2023-05-19T06:48:48.986Z,101113.53
2023-05-19T06:51:24.570Z,101115.97
2023-05-19T06:53:56.511Z,101111.13
2023-05-19T06:56:29.046Z,101122.41
2023-05-19T06:59:04.759Z,101122.41
2023-05-19T07:01:42.560Z,101126.06
2023-05-19T07:04:11.012Z,101126.13
2023-05-19T07:06:41.792Z,101118.81
2023-05-19T07:09:15.352Z,101122.53
2023-05-19T07:11:49.423Z,101118.16
2023-05-19T07:14:22.906Z,101123.81
2023-05-19T07:16:56.685Z,101119.81
2023-05-19T07:19:32.159Z,101116.97
2023-05-19T07:21:59.876Z,101113.31
2023-05-19T07:24:32.721Z,101119.00
2023-05-19T07:27:05.653Z,101110.19
2023-05-19T07:29:35.564Z,101114.28
2023-05-19T07:32:03.279Z,101116.75
2023-05-19T07:34:31.028Z,101116.75
2023-05-19T07:36:59.680Z,101109.03
2023-05-19T07:39:29.835Z,101121.53
2023-05-19T07:41:57.870Z,101117.13
2023-05-19T07:44:27.301Z,101118.75
2023-05-19T07:46:55.320Z,101113.13
2023-05-19T07:49:23.661Z,101118.81
2023-05-19T07:51:52.800Z,101127.75
2023-05-19T07:54:21.440Z,101120.41
2023-05-19T07:56:49.312Z,101120.41
2023-05-19T07:59:17.075Z,101128.91
2023-05-19T08:01:44.778Z,101124.47
2023-05-19T08:04:14.590Z,101119.63
2023-05-19T08:06:44.524Z,101119.97
2023-05-19T08:09:12.392Z,101114.72
2023-05-19T08:11:40.167Z,101122.88
2023-05-19T08:14:10.961Z,101130.66
2023-05-19T08:16:39.365Z,101125.66
2023-05-19T08:19:07.561Z,101120.00
2023-05-19T08:21:36.676Z,101118.81
2023-05-19T08:24:04.470Z,101121.97
2023-05-19T08:26:32.042Z,101119.97
2023-05-19T08:28:59.888Z,101126.06
2023-05-19T08:31:27.782Z,101123.63
2023-05-19T08:33:55.302Z,101121.25
2023-05-19T08:36:23.403Z,101130.22
2023-05-19T08:38:51.028Z,101126.88
2023-05-19T08:41:19.028Z,101128.44
2023-05-19T08:43:47.178Z,101126.00
2023-05-19T08:46:18.537Z,101125.19
2023-05-19T08:48:53.852Z,101128.03
2023-05-19T08:51:51.158Z,101129.25
2023-05-19T08:54:20.922Z,101133.22
2023-05-19T08:56:48.846Z,101132.31
2023-05-19T08:59:21.804Z,101132.31
2023-05-19T09:01:50.833Z,101136.44
2023-05-19T09:04:19.141Z,101130.38
2023-05-19T09:06:50.471Z,101131.56
2023-05-19T09:09:20.908Z,101140.09
2023-05-19T09:11:48.927Z,101136.44
2023-05-19T09:14:16.863Z,101140.09
2023-05-19T09:16:48.310Z,101138.84
2023-05-19T09:19:20.845Z,101134.00
2023-05-19T09:22:01.293Z,101138.88
2023-05-19T09:24:29.897Z,101136.44
2023-05-19T09:27:02.383Z,101138.06
2023-05-19T09:29:30.139Z,101132.41
2023-05-19T09:32:01.771Z,101131.59
2023-05-19T09:34:31.900Z,101140.84
2023-05-19T09:37:05.279Z,101147.69
2023-05-19T09:39:35.664Z,101144.53
2023-05-19T09:42:05.424Z,101147.34
2023-05-19T09:44:38.489Z,101153.88
2023-05-19T09:47:08.759Z,101150.97
2023-05-19T09:49:48.886Z,101151.06
2023-05-19T09:52:16.603Z,101142.13
2023-05-19T09:54:51.811Z,101140.91
2023-05-19T09:57:27.273Z,101138.06
2023-05-19T10:00:00.344Z,101132.03
2023-05-19T10:02:32.264Z,101139.25
2023-05-19T10:05:01.479Z,101138.38
2023-05-19T10:07:35.127Z,101145.31
2023-05-19T10:10:10.129Z,101149.00
2023-05-19T10:12:41.467Z,101142.13
2023-05-19T10:15:11.579Z,101151.94
2023-05-19T10:17:42.527Z,101130.81
2023-05-19T10:20:14.953Z,101143.38
2023-05-19T10:22:47.139Z,101144.97
2023-05-19T10:25:16.964Z,101143.81
2023-05-19T10:27:57.690Z,101142.97
2023-05-19T10:30:56.276Z,101138.09
2023-05-19T10:33:42.398Z,101145.81
2023-05-19T10:36:21.991Z,101145.38
2023-05-19T10:39:16.743Z,101141.22
2023-05-19T10:41:54.367Z,101135.63
2023-05-19T10:44:58.121Z,101129.19
2023-05-19T10:47:30.027Z,101130.34
2023-05-19T10:50:06.981Z,101125.50
2023-05-19T10:52:44.760Z,101131.13
2023-05-19T10:55:17.827Z,101131.41
2023-05-19T10:57:56.940Z,101129.81
2023-05-19T11:00:33.565Z,101121.75
2023-05-19T11:03:24.491Z,101125.28
2023-05-19T11:06:14.542Z,101120.03
2023-05-19T11:08:45.091Z,101124.84
2023-05-19T11:11:17.146Z,101132.16
2023-05-19T11:13:57.831Z,101128.09
2023-05-19T11:16:34.735Z,101120.41
2023-05-19T11:19:02.662Z,101119.97
2023-05-19T11:21:43.694Z,101118.28
2023-05-19T11:24:31.695Z,101112.19
2023-05-19T11:27:20.407Z,101121.53
2023-05-19T11:29:48.790Z,101120.28
2023-05-19T11:32:26.425Z,101106.53
2023-05-19T11:34:58.343Z,101106.09
2023-05-19T11:37:29.187Z,101101.25
2023-05-19T11:40:07.472Z,101109.31
2023-05-19T11:42:37.197Z,101110.22
2023-05-19T11:45:05.677Z,101104.56
2023-05-19T11:47:42.613Z,101098.97
2023-05-19T11:50:21.750Z,101094.56
2023-05-19T11:52:50.751Z,101104.00
2023-05-19T11:55:19.360Z,101098.81
2023-05-19T11:58:03.855Z,101095.22
2023-05-19T12:00:40.324Z,101101.38
2023-05-19T12:03:14.365Z,101093.66
2023-05-19T12:05:48.961Z,101098.09
2023-05-19T12:08:21.835Z,101099.34
2023-05-19T12:10:52.412Z,101098.53
2023-05-19T12:13:22.962Z,101094.47
2023-05-19T12:16:02.074Z,101094.47
2023-05-19T12:18:40.443Z,101090.81
2023-05-19T12:21:11.441Z,101087.56
2023-05-19T12:23:41.664Z,101093.22
2023-05-19T12:26:10.746Z,101089.94
2023-05-19T12:28:42.223Z,101091.16
2023-05-19T12:31:15.821Z,101091.16
2023-05-19T12:33:48.712Z,101091.16
2023-05-19T12:36:19.564Z,101094.00
2023-05-19T12:38:47.915Z,101098.44
2023-05-19T12:41:15.690Z,101094.00
2023-05-19T12:43:45.636Z,101094.88
2023-05-19T12:46:19.200Z,101099.31
2023-05-19T12:48:50.193Z,101095.28
2023-05-19T12:51:19.255Z,101093.66
2023-05-19T12:53:49.896Z,101088.00
2023-05-19T12:56:20.345Z,101093.28
2023-05-19T12:58:54.783Z,101087.59
2023-05-19T13:01:26.565Z,101087.56
2023-05-19T13:04:02.141Z,101090.81
2023-05-19T13:06:32.949Z,101087.56
2023-05-19T13:09:05.329Z,101080.66
2023-05-19T13:11:36.370Z,101081.53
2023-05-19T13:14:09.276Z,101085.56
2023-05-19T13:16:40.114Z,101084.34
2023-05-19T13:19:24.801Z,101084.72
2023-05-19T13:21:56.068Z,101090.81
2023-05-19T13:24:23.674Z,101087.19
2023-05-19T13:26:55.249Z,101078.28
2023-05-19T13:29:28.483Z,101077.09
2023-05-19T13:32:01.193Z,101079.53
2023-05-19T13:34:29.488Z,101079.50
2023-05-19T13:36:59.747Z,101083.19
2023-05-19T13:39:30.115Z,101079.97
2023-05-19T13:42:03.003Z,101079.56
2023-05-19T13:44:33.895Z,101088.09
2023-05-19T13:47:05.052Z,101083.22
2023-05-19T13:49:35.988Z,101084.88
2023-05-19T13:52:08.259Z,101087.69
2023-05-19T13:54:38.130Z,101092.19
2023-05-19T13:57:12.063Z,101087.69
2023-05-19T13:59:57.173Z,101092.56
2023-05-19T14:02:40.046Z,101092.97
2023-05-19T14:05:08.736Z,101092.91
2023-05-19T14:07:39.297Z,101087.25
2023-05-19T14:10:07.803Z,101087.31
2023-05-19T14:12:52.808Z,101086.47
2023-05-19T14:15:29.394Z,101088.88
2023-05-19T14:17:59.289Z,101095.72
2023-05-19T14:20:30.432Z,101086.84
2023-05-19T14:22:58.935Z,101088.81
2023-05-19T14:25:31.572Z,101092.50
2023-05-19T14:28:02.089Z,101084.81
2023-05-19T14:30:32.691Z,101090.47
2023-05-19T14:33:02.862Z,101089.69
2023-05-19T14:35:38.686Z,101099.84
2023-05-19T14:38:09.228Z,101088.13
2023-05-19T14:40:37.982Z,101095.41
2023-05-19T14:43:05.722Z,101091.75
2023-05-19T14:45:33.823Z,101089.25
2023-05-19T14:48:01.799Z,101091.28
2023-05-19T14:50:34.807Z,101092.13
2023-05-19T14:53:02.712Z,101086.53
2023-05-19T14:55:33.496Z,101087.31
2023-05-19T14:58:01.416Z,101095.84
2023-05-19T15:00:29.190Z,101090.97
2023-05-19T15:02:59.470Z,101089.75
2023-05-19T15:05:27.353Z,101092.19
2023-05-19T15:07:55.130Z,101095.34
2023-05-19T15:10:25.317Z,101091.25
2023-05-19T15:12:53.721Z,101085.97
2023-05-19T15:15:21.551Z,101088.44
2023-05-19T15:17:49.459Z,101086.00
2023-05-19T15:20:17.961Z,101082.75
2023-05-19T15:22:46.153Z,101081.53
2023-05-19T15:25:14.174Z,101079.13
2023-05-19T15:27:45.333Z,101076.72
2023-05-19T15:30:14.698Z,101076.31
2023-05-19T15:32:46.081Z,101066.66
2023-05-19T15:35:14.162Z,101069.88
2023-05-19T15:37:42.184Z,101068.25
2023-05-19T15:40:11.037Z,101067.84
2023-05-19T15:42:39.094Z,101061.34
2023-05-19T15:45:10.894Z,101062.94
2023-05-19T15:47:38.997Z,101058.50
2023-05-19T15:50:14.867Z,101062.13
2023-05-19T15:52:43.176Z,101062.50
2023-05-19T15:55:11.252Z,101056.41
2023-05-19T15:57:39.464Z,101058.00
2023-05-19T16:00:08.150Z,101049.91
2023-05-19T16:02:36.270Z,101055.59
2023-05-19T16:05:04.361Z,101045.06
2023-05-19T16:07:32.191Z,101053.94
2023-05-19T16:09:59.961Z,101041.78
2023-05-19T16:12:28.022Z,101042.59
2023-05-19T16:14:55.654Z,101040.16
2023-05-19T16:17:23.277Z,101034.88
2023-05-19T16:19:50.939Z,101023.97
2023-05-19T16:22:18.781Z,101030.44
2023-05-19T16:24:46.467Z,101026.34
2023-05-19T16:27:14.021Z,101027.56
2023-05-19T16:29:41.784Z,101026.66
2023-05-19T16:32:09.363Z,101018.97
2023-05-19T16:34:36.952Z,101019.47
2023-05-19T16:37:04.847Z,101019.00
2023-05-19T16:39:32.932Z,101015.78
2023-05-19T16:42:00.689Z,101021.81
2023-05-19T16:44:28.303Z,101015.34
2023-05-19T16:46:55.943Z,101011.69
2023-05-19T16:49:23.503Z,101006.47
2023-05-19T16:51:53.042Z,100999.56
2023-05-19T16:54:21.278Z,101003.56
2023-05-19T16:56:50.088Z,100987.38
2023-05-19T16:59:17.646Z,100994.25
2023-05-19T17:01:45.263Z,100989.41
2023-05-19T17:04:13.248Z,100988.19
2023-05-19T17:06:40.941Z,101001.16
2023-05-19T17:09:08.487Z,100998.31
2023-05-19T17:11:42.249Z,100995.88
2023-05-19T17:14:10.029Z,100999.47
2023-05-19T17:16:57.968Z,101002.28
2023-05-19T17:19:25.405Z,100995.41
2023-05-19T17:21:56.272Z,100997.41
2023-05-19T17:24:28.878Z,100992.16
2023-05-19T17:26:58.660Z,100994.19
2023-05-19T17:29:29.463Z,100982.88
2023-05-19T17:31:59.414Z,100990.50
2023-05-19T17:34:29.324Z,100991.28
2023-05-19T17:36:59.346Z,101001.44
2023-05-19T17:39:26.867Z,100995.34
2023-05-19T17:41:54.612Z,100995.34
2023-05-19T17:44:24.808Z,100994.91
2023-05-19T17:46:52.428Z,100997.34
2023-05-19T17:49:22.955Z,100997.75
2023-05-19T17:51:51.005Z,100998.16
2023-05-19T17:54:21.337Z,100997.38
2023-05-19T17:56:54.769Z,100998.16
2023-05-19T17:59:23.464Z,101007.44
2023-05-19T18:01:51.789Z,101005.81
2023-05-19T18:04:19.998Z,101005.81
2023-05-19T18:06:50.024Z,101000.97
2023-05-19T18:09:19.978Z,101009.03
2023-05-19T18:11:49.660Z,101007.00
2023-05-19T18:14:17.882Z,101014.69
2023-05-19T18:16:49.680Z,101018.72
2023-05-19T18:19:17.359Z,101014.69
2023-05-19T18:21:47.768Z,101009.03
2023-05-19T18:24:18.024Z,101013.06
2023-05-19T18:26:48.100Z,101013.06
2023-05-19T18:29:21.478Z,101018.28
2023-05-19T18:31:49.606Z,101019.94
2023-05-19T18:34:17.715Z,101018.31
2023-05-19T18:36:45.629Z,101023.97
2023-05-19T18:39:15.369Z,101031.63
2023-05-19T18:41:43.716Z,101025.59
2023-05-19T18:44:16.539Z,101020.31
2023-05-19T18:46:46.713Z,101032.84
2023-05-19T18:49:14.499Z,101015.47
2023-05-19T18:51:42.560Z,101020.72
2023-05-19T18:54:12.540Z,101011.81
2023-05-19T18:56:41.406Z,101024.72
2023-05-19T18:59:10.055Z,101029.56
2023-05-19T19:01:41.078Z,101028.75
2023-05-19T19:04:11.331Z,101034.00
2023-05-19T19:06:39.029Z,101036.81
2023-05-19T19:09:09.787Z,101033.59
2023-05-19T19:11:40.596Z,101027.50
2023-05-19T19:14:10.882Z,101028.31
2023-05-19T19:16:41.336Z,101033.59
2023-05-19T19:19:09.994Z,101030.34
2023-05-19T19:21:40.608Z,101033.97
2023-05-19T19:24:08.362Z,101026.66
2023-05-19T19:26:41.564Z,101036.75
2023-05-19T19:29:12.278Z,101040.41
2023-05-19T19:31:39.899Z,101042.47
2023-05-19T19:34:11.275Z,101039.59
2023-05-19T19:36:41.373Z,101046.44
2023-05-19T19:39:12.011Z,101046.44
2023-05-19T19:41:40.980Z,101052.09
2023-05-19T19:44:11.333Z,101042.81
2023-05-19T19:46:42.468Z,101044.00
2023-05-19T19:49:10.468Z,101041.56
2023-05-19T19:51:38.180Z,101048.41
2023-05-19T19:54:08.232Z,101055.69
2023-05-19T19:56:38.497Z,101052.88
2023-05-19T19:59:13.864Z,101047.22
2023-05-19T20:01:44.034Z,101050.06
2023-05-19T20:04:14.685Z,101053.25
2023-05-19T20:06:47.810Z,101054.06
2023-05-19T20:09:16.213Z,101051.66
2023-05-19T20:11:43.899Z,101048.84
2023-05-19T20:14:11.700Z,101055.75
2023-05-19T20:16:41.796Z,101046.81
2023-05-19T20:19:11.927Z,101045.59
2023-05-19T20:21:39.842Z,101041.97
2023-05-19T20:24:07.572Z,101045.22
2023-05-19T20:26:35.441Z,101050.88
2023-05-19T20:29:05.440Z,101051.72
2023-05-19T20:31:35.701Z,101041.16
2023-05-19T20:34:03.904Z,101042.75
2023-05-19T20:36:32.000Z,101047.59
2023-05-19T20:38:59.898Z,101049.28
2023-05-19T20:41:27.957Z,101051.69
2023-05-19T20:43:58.100Z,101046.44
2023-05-19T20:46:27.121Z,101047.22
2023-05-19T20:48:55.129Z,101043.19
2023-05-19T20:51:27.415Z,101038.72
2023-05-19T20:54:00.932Z,101034.69
2023-05-19T20:56:31.074Z,101033.09
2023-05-19T20:58:58.689Z,101031.06
2023-05-19T21:01:27.067Z,101028.59
2023-05-19T21:03:56.954Z,101033.06
2023-05-19T21:06:25.485Z,101037.88
2023-05-19T21:08:55.845Z,101032.63
2023-05-19T21:11:23.938Z,101034.63
2023-05-19T21:13:54.800Z,101036.25
2023-05-19T21:16:23.107Z,101034.69
2023-05-19T21:18:50.442Z,101041.91
2023-05-19T21:21:18.116Z,101035.00
2023-05-19T21:23:48.393Z,101028.19
2023-05-19T21:26:19.079Z,101030.59
2023-05-19T21:28:47.259Z,101024.94
2023-05-19T21:31:17.253Z,101026.53
2023-05-19T21:33:47.944Z,101020.91
2023-05-19T21:36:16.715Z,101020.88
2023-05-19T21:38:46.696Z,101020.47
2023-05-19T21:41:19.764Z,101019.66
2023-05-19T21:43:53.179Z,101025.69
2023-05-19T21:46:21.134Z,101020.84
2023-05-19T21:48:50.932Z,101015.59
2023-05-19T21:51:18.845Z,101015.59
2023-05-19T21:53:46.692Z,101021.28
2023-05-19T21:56:17.046Z,101014.81
2023-05-19T21:58:44.674Z,101025.72
2023-05-19T22:01:13.261Z,101021.69
2023-05-19T22:03:43.859Z,101021.66
2023-05-19T22:06:14.074Z,101030.53
2023-05-19T22:08:41.870Z,101030.97
2023-05-19T22:11:09.802Z,101035.78
2023-05-19T22:13:41.168Z,101040.25
2023-05-19T22:16:09.236Z,101031.78
2023-05-19T22:18:36.976Z,101031.78
2023-05-19T22:21:08.078Z,101031.78
2023-05-19T22:23:41.810Z,101029.75
2023-05-19T22:26:12.595Z,101024.88
2023-05-19T22:28:40.331Z,101030.56
2023-05-19T22:31:08.001Z,101024.09
2023-05-19T22:33:35.950Z,101023.69
2023-05-19T22:36:03.959Z,101018.44
2023-05-19T22:38:31.694Z,101020.03
2023-05-19T22:40:59.469Z,101019.22
2023-05-19T22:43:27.286Z,101012.34
2023-05-19T22:45:57.286Z,101015.56
2023-05-19T22:48:25.306Z,101020.81
2023-05-19T22:50:55.961Z,101020.81
2023-05-19T22:53:26.090Z,101020.03
2023-05-19T22:55:56.179Z,101012.75
2023-05-19T22:58:29.214Z,101005.44
2023-05-19T23:00:57.328Z,101006.63
2023-05-19T23:03:27.930Z,100997.34
2023-05-19T23:05:58.601Z,101001.00
2023-05-19T23:08:31.670Z,100991.31
2023-05-19T23:11:02.494Z,100987.31
2023-05-19T23:13:33.993Z,100987.69
2023-05-19T23:16:01.684Z,100990.91
2023-05-19T23:18:29.370Z,100987.22
2023-05-19T23:21:00.179Z,100987.22
2023-05-19T23:23:29.224Z,100981.56
2023-05-19T23:25:56.993Z,100979.94
2023-05-19T23:28:27.206Z,100976.34
2023-05-19T23:30:55.478Z,100982.75
2023-05-19T23:33:23.071Z,100969.06
2023-05-19T23:35:50.896Z,100975.56
2023-05-19T23:38:21.014Z,100969.84
2023-05-19T23:40:48.828Z,100962.19
2023-05-19T23:43:16.586Z,100967.41
2023-05-19T23:45:44.290Z,100962.56
2023-05-19T23:48:12.161Z,100963.41
2023-05-19T23:50:39.834Z,100967.44
2023-05-19T23:53:08.003Z,100965.06
2023-05-19T23:55:38.850Z,100958.16
2023-05-19T23:58:09.319Z,100963.41
